Cozumel, Mexico

7:41 PM EST on February 13, 2016 (GMT -0500)
Cozumel International | | Change Station
CLOSE
Current Station
Airport
Location: Cozumel,
Elevation: 16 ft
Nearby Weather Stations

Elev 16 ft 20.52 °N, 86.93 °W | Updated 49 minutes ago

Scattered Clouds
Scattered Clouds
70 °F
Feels Like 70 °F
N
14
Wind Variable Wind from NE

Today
High -- | Low -- °F
--% Chance of Precip.
Yesterday
High -- | Low -- °F
Precip. -- in
Pressure 30.14 in
Visibility 7.0 miles
Clouds Scattered Clouds 1500 ft
Dew Point 61 °F
Humidity 73%
Rainfall 0.00 in
Snow Depth Not available.
7:18 AM 6:45 PM
Waxing Crescent, 35% visible
METAR MMCZ 132352Z 04012KT 7SM SCT015 21/16 A3015 RMK SLP204 57011 900 8/500 CU
Pressure 30.14 in
Visibility 7.0 miles
Clouds Scattered Clouds 1500 ft
Dew Point 61 °F
Humidity 73%
Rainfall 0.00 in
Snow Depth Not available.
7:18 AM 6:45 PM
Waxing Crescent, 35% visible
METAR MMCZ 132352Z 04012KT 7SM SCT015 21/16 A3015 RMK SLP204 57011 900 8/500 CU

10-Day Weather Forecast

No radar image for this location.
×

Almanac

Astronomy

Feb. 13, 2016 Rise Set
Actual Time
Civil Twilight
Nautical Twilight
Astronomical Twilight
Moon
Length of Visible Light
Length of Day
Tomorrow will be .
, % of the Moon is Illuminated

Today's Extremes

Country Highs Country Lows

Community

WunderPhotos

Upload Photos

1,892,715 photos uploaded!

WunderBlog® & News

Nearby

Air Quality

  Air Quality AQ Index Pollutant
Not available.

Snow Depth

Station Depth Elevation

Earthquake Activity

City Distance Mag. Time & Date
Minimum magnitude displayed is 2.5.

Coastal Water Temperatures

Place Temperature

Stations

Nearby Weather Stations

Station Location Temp. Windchill Dew Point Humidity Wind Precip. Elev Updated Type